sensor_id;sensor_type;location;lat;lon;timestamp;P1;durP1;ratioP1;P2;durP2;ratioP2
11671;SDS011;5892;43.412;24.612;2023-06-26T00:01:45;0.00;;;0.00;;
11671;SDS011;5892;43.412;24.612;2023-06-26T00:04:12;0.00;;;0.00;;
11671;SDS011;5892;43.412;24.612;2023-06-26T00:06:39;0.00;;;0.00;;
11671;SDS011;5892;43.412;24.612;2023-06-26T00:09:06;0.00;;;0.00;;
11671;SDS011;5892;43.412;24.612;2023-06-26T00:11:35;0.00;;;0.00;;
11671;SDS011;5892;43.412;24.612;2023-06-26T00:14:02;0.00;;;0.00;;
11671;SDS011;5892;43.412;24.612;2023-06-26T00:16:28;0.00;;;0.00;;
11671;SDS011;5892;43.412;24.612;2023-06-26T00:18:56;0.00;;;0.00;;
11671;SDS011;5892;43.412;24.612;2023-06-26T00:21:24;0.00;;;0.00;;
11671;SDS011;5892;43.412;24.612;2023-06-26T00:23:52;0.00;;;0.00;;
11671;SDS011;5892;43.412;24.612;2023-06-26T00:26:19;1.37;;;1.17;;
11671;SDS011;5892;43.412;24.612;2023-06-26T00:28:50;9.43;;;4.90;;
11671;SDS011;5892;43.412;24.612;2023-06-26T00:31:17;8.70;;;5.13;;
11671;SDS011;5892;43.412;24.612;2023-06-26T00:33:44;6.67;;;5.00;;
11671;SDS011;5892;43.412;24.612;2023-06-26T00:36:11;9.00;;;5.23;;
11671;SDS011;5892;43.412;24.612;2023-06-26T00:38:38;7.43;;;5.60;;
11671;SDS011;5892;43.412;24.612;2023-06-26T00:41:07;11.73;;;5.27;;
11671;SDS011;5892;43.412;24.612;2023-06-26T00:43:37;8.83;;;5.80;;
11671;SDS011;5892;43.412;24.612;2023-06-26T00:46:09;10.17;;;5.67;;
11671;SDS011;5892;43.412;24.612;2023-06-26T00:48:36;8.40;;;4.97;;
11671;SDS011;5892;43.412;24.612;2023-06-26T00:51:04;9.27;;;5.13;;
11671;SDS011;5892;43.412;24.612;2023-06-26T00:53:31;8.17;;;5.03;;
11671;SDS011;5892;43.412;24.612;2023-06-26T00:55:58;8.03;;;5.30;;
11671;SDS011;5892;43.412;24.612;2023-06-26T00:58:26;8.23;;;4.93;;
11671;SDS011;5892;43.412;24.612;2023-06-26T01:00:53;7.07;;;5.03;;
11671;SDS011;5892;43.412;24.612;2023-06-26T01:03:22;7.80;;;5.20;;
11671;SDS011;5892;43.412;24.612;2023-06-26T01:05:50;8.80;;;4.80;;
11671;SDS011;5892;43.412;24.612;2023-06-26T01:08:18;8.77;;;4.57;;
11671;SDS011;5892;43.412;24.612;2023-06-26T01:10:46;8.27;;;5.23;;
11671;SDS011;5892;43.412;24.612;2023-06-26T01:13:14;7.20;;;5.30;;
11671;SDS011;5892;43.412;24.612;2023-06-26T01:15:42;6.60;;;4.90;;
11671;SDS011;5892;43.412;24.612;2023-06-26T01:18:09;8.40;;;5.13;;
11671;SDS011;5892;43.412;24.612;2023-06-26T01:20:38;9.53;;;4.77;;
11671;SDS011;5892;43.412;24.612;2023-06-26T01:23:16;7.00;;;4.83;;
11671;SDS011;5892;43.412;24.612;2023-06-26T01:25:53;8.13;;;4.57;;
11671;SDS011;5892;43.412;24.612;2023-06-26T01:28:28;6.80;;;4.87;;
11671;SDS011;5892;43.412;24.612;2023-06-26T01:30:56;9.03;;;5.03;;
11671;SDS011;5892;43.412;24.612;2023-06-26T01:33:23;8.77;;;5.30;;
11671;SDS011;5892;43.412;24.612;2023-06-26T01:35:50;9.47;;;5.00;;
11671;SDS011;5892;43.412;24.612;2023-06-26T01:38:18;11.07;;;5.03;;
11671;SDS011;5892;43.412;24.612;2023-06-26T01:40:46;7.77;;;5.20;;
11671;SDS011;5892;43.412;24.612;2023-06-26T01:43:15;13.07;;;5.50;;
11671;SDS011;5892;43.412;24.612;2023-06-26T01:45:47;10.73;;;5.20;;
11671;SDS011;5892;43.412;24.612;2023-06-26T01:48:16;10.93;;;5.10;;
11671;SDS011;5892;43.412;24.612;2023-06-26T01:50:49;13.13;;;5.40;;
11671;SDS011;5892;43.412;24.612;2023-06-26T01:53:19;9.63;;;5.60;;
11671;SDS011;5892;43.412;24.612;2023-06-26T01:55:50;9.40;;;5.43;;
11671;SDS011;5892;43.412;24.612;2023-06-26T01:58:19;10.30;;;5.70;;
11671;SDS011;5892;43.412;24.612;2023-06-26T02:00:51;11.97;;;5.13;;
11671;SDS011;5892;43.412;24.612;2023-06-26T02:03:19;8.57;;;4.97;;
11671;SDS011;5892;43.412;24.612;2023-06-26T02:05:49;12.13;;;4.87;;
11671;SDS011;5892;43.412;24.612;2023-06-26T02:08:16;10.90;;;5.50;;
11671;SDS011;5892;43.412;24.612;2023-06-26T02:10:43;11.03;;;4.80;;
11671;SDS011;5892;43.412;24.612;2023-06-26T02:13:10;6.60;;;5.10;;
11671;SDS011;5892;43.412;24.612;2023-06-26T02:15:37;9.87;;;5.63;;
11671;SDS011;5892;43.412;24.612;2023-06-26T02:18:05;10.73;;;6.83;;
11671;SDS011;5892;43.412;24.612;2023-06-26T02:20:32;9.97;;;5.53;;
11671;SDS011;5892;43.412;24.612;2023-06-26T02:22:59;10.50;;;6.33;;
11671;SDS011;5892;43.412;24.612;2023-06-26T02:25:26;7.27;;;5.87;;
11671;SDS011;5892;43.412;24.612;2023-06-26T02:27:58;11.03;;;6.60;;
11671;SDS011;5892;43.412;24.612;2023-06-26T02:30:25;11.57;;;6.03;;
11671;SDS011;5892;43.412;24.612;2023-06-26T02:32:52;12.10;;;6.80;;
11671;SDS011;5892;43.412;24.612;2023-06-26T02:35:20;15.37;;;6.40;;
11671;SDS011;5892;43.412;24.612;2023-06-26T02:37:47;10.30;;;6.77;;
11671;SDS011;5892;43.412;24.612;2023-06-26T02:40:14;13.40;;;7.60;;
11671;SDS011;5892;43.412;24.612;2023-06-26T02:42:41;9.20;;;6.67;;
11671;SDS011;5892;43.412;24.612;2023-06-26T02:45:08;14.07;;;7.93;;
11671;SDS011;5892;43.412;24.612;2023-06-26T02:47:36;13.43;;;7.90;;
11671;SDS011;5892;43.412;24.612;2023-06-26T02:50:05;13.00;;;7.67;;
11671;SDS011;5892;43.412;24.612;2023-06-26T02:52:33;14.67;;;8.30;;
11671;SDS011;5892;43.412;24.612;2023-06-26T02:55:00;16.10;;;8.40;;
11671;SDS011;5892;43.412;24.612;2023-06-26T02:57:28;17.17;;;9.33;;
11671;SDS011;5892;43.412;24.612;2023-06-26T02:59:55;13.03;;;9.30;;
11671;SDS011;5892;43.412;24.612;2023-06-26T03:02:22;19.23;;;9.60;;
11671;SDS011;5892;43.412;24.612;2023-06-26T03:04:49;15.03;;;8.47;;
11671;SDS011;5892;43.412;24.612;2023-06-26T03:07:16;18.10;;;10.00;;
11671;SDS011;5892;43.412;24.612;2023-06-26T03:09:45;15.53;;;10.20;;
11671;SDS011;5892;43.412;24.612;2023-06-26T03:12:12;18.37;;;12.30;;
11671;SDS011;5892;43.412;24.612;2023-06-26T03:14:39;19.47;;;13.33;;
11671;SDS011;5892;43.412;24.612;2023-06-26T03:17:05;21.07;;;13.20;;
11671;SDS011;5892;43.412;24.612;2023-06-26T03:19:32;19.50;;;13.63;;
11671;SDS011;5892;43.412;24.612;2023-06-26T03:21:59;23.17;;;13.37;;
11671;SDS011;5892;43.412;24.612;2023-06-26T03:24:26;16.67;;;12.50;;
11671;SDS011;5892;43.412;24.612;2023-06-26T03:26:56;17.43;;;13.17;;
11671;SDS011;5892;43.412;24.612;2023-06-26T03:29:23;15.60;;;12.30;;
11671;SDS011;5892;43.412;24.612;2023-06-26T03:31:50;21.53;;;13.33;;
11671;SDS011;5892;43.412;24.612;2023-06-26T03:34:16;24.53;;;12.60;;
11671;SDS011;5892;43.412;24.612;2023-06-26T03:36:45;22.07;;;13.70;;
11671;SDS011;5892;43.412;24.612;2023-06-26T03:39:11;18.77;;;13.33;;
11671;SDS011;5892;43.412;24.612;2023-06-26T03:41:38;19.47;;;12.63;;
11671;SDS011;5892;43.412;24.612;2023-06-26T03:44:08;23.63;;;13.50;;
11671;SDS011;5892;43.412;24.612;2023-06-26T03:46:35;21.87;;;12.90;;
11671;SDS011;5892;43.412;24.612;2023-06-26T03:49:02;19.93;;;13.73;;
11671;SDS011;5892;43.412;24.612;2023-06-26T03:51:29;21.83;;;13.33;;
11671;SDS011;5892;43.412;24.612;2023-06-26T03:53:56;22.30;;;13.80;;
11671;SDS011;5892;43.412;24.612;2023-06-26T03:56:22;22.73;;;13.77;;
11671;SDS011;5892;43.412;24.612;2023-06-26T03:58:49;26.80;;;14.33;;
11671;SDS011;5892;43.412;24.612;2023-06-26T04:01:18;22.10;;;15.53;;
11671;SDS011;5892;43.412;24.612;2023-06-26T04:03:46;24.77;;;16.30;;
11671;SDS011;5892;43.412;24.612;2023-06-26T04:06:13;26.30;;;15.83;;
11671;SDS011;5892;43.412;24.612;2023-06-26T04:08:40;24.50;;;15.47;;
11671;SDS011;5892;43.412;24.612;2023-06-26T04:11:07;19.73;;;15.70;;
11671;SDS011;5892;43.412;24.612;2023-06-26T04:13:34;29.00;;;16.47;;
11671;SDS011;5892;43.412;24.612;2023-06-26T04:16:01;25.17;;;17.13;;
11671;SDS011;5892;43.412;24.612;2023-06-26T04:18:32;25.67;;;17.97;;
11671;SDS011;5892;43.412;24.612;2023-06-26T04:21:09;26.97;;;18.73;;
11671;SDS011;5892;43.412;24.612;2023-06-26T04:23:37;26.13;;;18.60;;
11671;SDS011;5892;43.412;24.612;2023-06-26T04:26:05;26.57;;;18.80;;
11671;SDS011;5892;43.412;24.612;2023-06-26T04:28:33;26.23;;;19.63;;
11671;SDS011;5892;43.412;24.612;2023-06-26T04:31:00;27.10;;;19.37;;
11671;SDS011;5892;43.412;24.612;2023-06-26T04:33:30;24.83;;;19.27;;
11671;SDS011;5892;43.412;24.612;2023-06-26T04:35:57;25.97;;;19.70;;
11671;SDS011;5892;43.412;24.612;2023-06-26T04:38:24;27.33;;;19.23;;
11671;SDS011;5892;43.412;24.612;2023-06-26T04:40:51;26.27;;;19.90;;
11671;SDS011;5892;43.412;24.612;2023-06-26T04:43:19;26.60;;;20.63;;
11671;SDS011;5892;43.412;24.612;2023-06-26T04:45:46;34.03;;;20.90;;
11671;SDS011;5892;43.412;24.612;2023-06-26T04:48:13;28.20;;;20.77;;
11671;SDS011;5892;43.412;24.612;2023-06-26T04:50:41;28.47;;;20.97;;
11671;SDS011;5892;43.412;24.612;2023-06-26T04:53:11;25.17;;;21.07;;
11671;SDS011;5892;43.412;24.612;2023-06-26T04:55:38;28.37;;;21.10;;
11671;SDS011;5892;43.412;24.612;2023-06-26T04:58:05;27.60;;;20.63;;
11671;SDS011;5892;43.412;24.612;2023-06-26T05:00:32;28.10;;;20.20;;
11671;SDS011;5892;43.412;24.612;2023-06-26T05:03:00;27.30;;;20.83;;
11671;SDS011;5892;43.412;24.612;2023-06-26T05:05:27;28.37;;;20.17;;
11671;SDS011;5892;43.412;24.612;2023-06-26T05:07:56;28.70;;;20.67;;
11671;SDS011;5892;43.412;24.612;2023-06-26T05:10:22;27.07;;;20.10;;
11671;SDS011;5892;43.412;24.612;2023-06-26T05:12:49;24.40;;;20.67;;
11671;SDS011;5892;43.412;24.612;2023-06-26T05:15:16;22.37;;;19.93;;
11671;SDS011;5892;43.412;24.612;2023-06-26T05:17:43;30.03;;;20.33;;
11671;SDS011;5892;43.412;24.612;2023-06-26T05:20:11;22.67;;;19.70;;
11671;SDS011;5892;43.412;24.612;2023-06-26T05:22:38;31.13;;;20.00;;
11671;SDS011;5892;43.412;24.612;2023-06-26T05:25:08;26.93;;;20.53;;
11671;SDS011;5892;43.412;24.612;2023-06-26T05:27:36;24.40;;;20.03;;
11671;SDS011;5892;43.412;24.612;2023-06-26T05:30:04;29.97;;;20.77;;
11671;SDS011;5892;43.412;24.612;2023-06-26T05:32:32;33.90;;;20.53;;
11671;SDS011;5892;43.412;24.612;2023-06-26T05:35:02;23.50;;;20.47;;
11671;SDS011;5892;43.412;24.612;2023-06-26T05:37:30;25.90;;;20.57;;
11671;SDS011;5892;43.412;24.612;2023-06-26T05:39:59;22.93;;;20.10;;
11671;SDS011;5892;43.412;24.612;2023-06-26T05:42:29;24.67;;;20.63;;
11671;SDS011;5892;43.412;24.612;2023-06-26T05:44:56;26.67;;;20.23;;
11671;SDS011;5892;43.412;24.612;2023-06-26T05:47:24;24.70;;;20.33;;
11671;SDS011;5892;43.412;24.612;2023-06-26T05:49:51;27.43;;;20.03;;
11671;SDS011;5892;43.412;24.612;2023-06-26T05:52:18;23.93;;;19.37;;
11671;SDS011;5892;43.412;24.612;2023-06-26T05:54:47;25.93;;;19.83;;
11671;SDS011;5892;43.412;24.612;2023-06-26T05:57:16;22.80;;;16.93;;
11671;SDS011;5892;43.412;24.612;2023-06-26T05:59:48;17.73;;;15.87;;
11671;SDS011;5892;43.412;24.612;2023-06-26T06:02:15;12.70;;;11.40;;
11671;SDS011;5892;43.412;24.612;2023-06-26T06:04:42;16.40;;;13.23;;
11671;SDS011;5892;43.412;24.612;2023-06-26T06:07:09;15.77;;;13.80;;
11671;SDS011;5892;43.412;24.612;2023-06-26T06:09:36;15.77;;;12.70;;
11671;SDS011;5892;43.412;24.612;2023-06-26T06:12:03;15.77;;;13.30;;
11671;SDS011;5892;43.412;24.612;2023-06-26T06:14:31;14.13;;;11.57;;
11671;SDS011;5892;43.412;24.612;2023-06-26T06:16:59;14.40;;;11.47;;
11671;SDS011;5892;43.412;24.612;2023-06-26T06:19:26;13.40;;;10.87;;
11671;SDS011;5892;43.412;24.612;2023-06-26T06:21:53;11.07;;;9.87;;
11671;SDS011;5892;43.412;24.612;2023-06-26T06:24:20;11.17;;;8.77;;
11671;SDS011;5892;43.412;24.612;2023-06-26T06:26:47;9.70;;;8.70;;
11671;SDS011;5892;43.412;24.612;2023-06-26T06:29:14;10.67;;;7.33;;
11671;SDS011;5892;43.412;24.612;2023-06-26T06:31:41;8.73;;;6.97;;
11671;SDS011;5892;43.412;24.612;2023-06-26T06:34:09;7.37;;;6.50;;
11671;SDS011;5892;43.412;24.612;2023-06-26T06:36:37;8.70;;;6.40;;
11671;SDS011;5892;43.412;24.612;2023-06-26T06:39:03;8.63;;;6.83;;
11671;SDS011;5892;43.412;24.612;2023-06-26T06:41:30;8.00;;;7.00;;
11671;SDS011;5892;43.412;24.612;2023-06-26T06:43:57;10.53;;;7.97;;
11671;SDS011;5892;43.412;24.612;2023-06-26T06:46:27;9.70;;;8.67;;
11671;SDS011;5892;43.412;24.612;2023-06-26T06:48:54;11.70;;;9.17;;
11671;SDS011;5892;43.412;24.612;2023-06-26T06:51:23;12.00;;;8.07;;
11671;SDS011;5892;43.412;24.612;2023-06-26T06:53:50;9.10;;;8.27;;
11671;SDS011;5892;43.412;24.612;2023-06-26T06:56:19;12.77;;;9.77;;
11671;SDS011;5892;43.412;24.612;2023-06-26T06:58:45;11.27;;;9.90;;
11671;SDS011;5892;43.412;24.612;2023-06-26T07:01:15;11.70;;;10.40;;
11671;SDS011;5892;43.412;24.612;2023-06-26T07:03:43;14.10;;;11.53;;
11671;SDS011;5892;43.412;24.612;2023-06-26T07:06:11;16.73;;;11.50;;
11671;SDS011;5892;43.412;24.612;2023-06-26T07:08:40;13.17;;;11.93;;
11671;SDS011;5892;43.412;24.612;2023-06-26T07:11:06;14.03;;;12.53;;
11671;SDS011;5892;43.412;24.612;2023-06-26T07:13:34;16.53;;;13.23;;
11671;SDS011;5892;43.412;24.612;2023-06-26T07:16:01;16.67;;;13.87;;
11671;SDS011;5892;43.412;24.612;2023-06-26T07:18:29;17.20;;;13.80;;
11671;SDS011;5892;43.412;24.612;2023-06-26T07:20:55;16.23;;;13.70;;
11671;SDS011;5892;43.412;24.612;2023-06-26T07:23:23;14.57;;;13.17;;
11671;SDS011;5892;43.412;24.612;2023-06-26T07:25:51;14.17;;;12.80;;
11671;SDS011;5892;43.412;24.612;2023-06-26T07:28:19;13.70;;;12.13;;
11671;SDS011;5892;43.412;24.612;2023-06-26T07:30:49;15.07;;;12.13;;
11671;SDS011;5892;43.412;24.612;2023-06-26T07:33:39;13.83;;;12.07;;
11671;SDS011;5892;43.412;24.612;2023-06-26T07:36:11;17.00;;;12.90;;
11671;SDS011;5892;43.412;24.612;2023-06-26T07:38:41;13.30;;;11.90;;
11671;SDS011;5892;43.412;24.612;2023-06-26T07:41:12;12.70;;;11.23;;
11671;SDS011;5892;43.412;24.612;2023-06-26T07:43:39;13.43;;;11.00;;
11671;SDS011;5892;43.412;24.612;2023-06-26T07:46:06;19.17;;;10.33;;
11671;SDS011;5892;43.412;24.612;2023-06-26T07:48:33;13.10;;;9.23;;
11671;SDS011;5892;43.412;24.612;2023-06-26T07:51:00;13.17;;;9.40;;
11671;SDS011;5892;43.412;24.612;2023-06-26T07:53:27;13.00;;;8.97;;
11671;SDS011;5892;43.412;24.612;2023-06-26T07:55:55;10.50;;;7.80;;
11671;SDS011;5892;43.412;24.612;2023-06-26T07:58:23;10.53;;;8.23;;
11671;SDS011;5892;43.412;24.612;2023-06-26T08:00:50;8.13;;;7.07;;
11671;SDS011;5892;43.412;24.612;2023-06-26T08:03:17;7.03;;;6.23;;
11671;SDS011;5892;43.412;24.612;2023-06-26T08:05:44;9.73;;;6.60;;
11671;SDS011;5892;43.412;24.612;2023-06-26T08:08:11;8.00;;;6.43;;
11671;SDS011;5892;43.412;24.612;2023-06-26T08:10:38;7.77;;;6.07;;
11671;SDS011;5892;43.412;24.612;2023-06-26T08:13:04;7.80;;;6.03;;
11671;SDS011;5892;43.412;24.612;2023-06-26T08:15:33;7.73;;;6.10;;
11671;SDS011;5892;43.412;24.612;2023-06-26T08:18:00;6.90;;;6.13;;
11671;SDS011;5892;43.412;24.612;2023-06-26T08:20:27;8.07;;;5.70;;
11671;SDS011;5892;43.412;24.612;2023-06-26T08:22:54;7.43;;;6.37;;
11671;SDS011;5892;43.412;24.612;2023-06-26T08:25:21;7.43;;;6.50;;
11671;SDS011;5892;43.412;24.612;2023-06-26T08:27:48;7.50;;;5.90;;
11671;SDS011;5892;43.412;24.612;2023-06-26T08:30:17;8.83;;;5.93;;
11671;SDS011;5892;43.412;24.612;2023-06-26T08:32:46;6.70;;;5.90;;
11671;SDS011;5892;43.412;24.612;2023-06-26T08:35:13;6.77;;;5.27;;
11671;SDS011;5892;43.412;24.612;2023-06-26T08:37:40;7.07;;;5.23;;
11671;SDS011;5892;43.412;24.612;2023-06-26T08:40:07;6.60;;;4.43;;
11671;SDS011;5892;43.412;24.612;2023-06-26T08:42:34;5.33;;;4.83;;
11671;SDS011;5892;43.412;24.612;2023-06-26T08:45:01;6.83;;;4.63;;
11671;SDS011;5892;43.412;24.612;2023-06-26T08:47:29;5.10;;;4.53;;
11671;SDS011;5892;43.412;24.612;2023-06-26T08:50:03;5.00;;;4.50;;
11671;SDS011;5892;43.412;24.612;2023-06-26T08:52:36;6.37;;;4.83;;
11671;SDS011;5892;43.412;24.612;2023-06-26T08:55:09;5.60;;;4.83;;
11671;SDS011;5892;43.412;24.612;2023-06-26T08:57:36;8.00;;;5.07;;
11671;SDS011;5892;43.412;24.612;2023-06-26T09:00:04;7.77;;;4.80;;
11671;SDS011;5892;43.412;24.612;2023-06-26T09:02:34;4.60;;;4.20;;
11671;SDS011;5892;43.412;24.612;2023-06-26T09:05:03;5.10;;;4.60;;
11671;SDS011;5892;43.412;24.612;2023-06-26T09:07:30;6.10;;;5.13;;
11671;SDS011;5892;43.412;24.612;2023-06-26T09:09:58;6.13;;;5.40;;
11671;SDS011;5892;43.412;24.612;2023-06-26T09:12:26;6.27;;;5.10;;
11671;SDS011;5892;43.412;24.612;2023-06-26T09:14:54;7.50;;;5.17;;
11671;SDS011;5892;43.412;24.612;2023-06-26T09:17:24;5.17;;;4.77;;
11671;SDS011;5892;43.412;24.612;2023-06-26T09:19:52;6.17;;;5.43;;
11671;SDS011;5892;43.412;24.612;2023-06-26T09:22:21;8.30;;;5.43;;
11671;SDS011;5892;43.412;24.612;2023-06-26T09:24:49;6.27;;;5.60;;
11671;SDS011;5892;43.412;24.612;2023-06-26T09:27:16;6.07;;;5.47;;
11671;SDS011;5892;43.412;24.612;2023-06-26T09:29:45;6.13;;;5.60;;
11671;SDS011;5892;43.412;24.612;2023-06-26T09:32:12;8.77;;;5.27;;
11671;SDS011;5892;43.412;24.612;2023-06-26T09:34:41;6.13;;;5.30;;
11671;SDS011;5892;43.412;24.612;2023-06-26T09:37:11;6.77;;;5.73;;
11671;SDS011;5892;43.412;24.612;2023-06-26T09:39:39;6.67;;;5.60;;
11671;SDS011;5892;43.412;24.612;2023-06-26T09:42:07;9.80;;;5.73;;
11671;SDS011;5892;43.412;24.612;2023-06-26T09:44:34;8.20;;;6.43;;
11671;SDS011;5892;43.412;24.612;2023-06-26T09:47:03;6.70;;;6.10;;
11671;SDS011;5892;43.412;24.612;2023-06-26T09:49:31;6.73;;;5.37;;
11671;SDS011;5892;43.412;24.612;2023-06-26T09:51:59;10.03;;;6.67;;
11671;SDS011;5892;43.412;24.612;2023-06-26T09:54:29;6.60;;;6.03;;
11671;SDS011;5892;43.412;24.612;2023-06-26T09:57:08;7.93;;;6.20;;
11671;SDS011;5892;43.412;24.612;2023-06-26T09:59:35;7.40;;;6.60;;
11671;SDS011;5892;43.412;24.612;2023-06-26T10:02:02;8.97;;;6.47;;
11671;SDS011;5892;43.412;24.612;2023-06-26T10:04:30;7.87;;;6.10;;
11671;SDS011;5892;43.412;24.612;2023-06-26T10:06:58;7.20;;;6.43;;
11671;SDS011;5892;43.412;24.612;2023-06-26T10:09:27;8.50;;;6.37;;
11671;SDS011;5892;43.412;24.612;2023-06-26T10:12:06;6.63;;;6.00;;
11671;SDS011;5892;43.412;24.612;2023-06-26T10:14:38;7.13;;;5.47;;
11671;SDS011;5892;43.412;24.612;2023-06-26T10:17:08;6.87;;;5.30;;
11671;SDS011;5892;43.412;24.612;2023-06-26T10:19:37;8.10;;;5.43;;
11671;SDS011;5892;43.412;24.612;2023-06-26T10:22:06;7.23;;;5.30;;
11671;SDS011;5892;43.412;24.612;2023-06-26T10:24:35;6.57;;;5.90;;
11671;SDS011;5892;43.412;24.612;2023-06-26T10:27:04;8.87;;;5.50;;
11671;SDS011;5892;43.412;24.612;2023-06-26T10:29:37;10.37;;;5.70;;
11671;SDS011;5892;43.412;24.612;2023-06-26T10:32:04;7.17;;;5.43;;
11671;SDS011;5892;43.412;24.612;2023-06-26T10:34:37;9.60;;;5.60;;
11671;SDS011;5892;43.412;24.612;2023-06-26T10:37:04;7.60;;;5.83;;
11671;SDS011;5892;43.412;24.612;2023-06-26T10:39:37;8.33;;;5.80;;
11671;SDS011;5892;43.412;24.612;2023-06-26T10:42:16;8.57;;;6.33;;
11671;SDS011;5892;43.412;24.612;2023-06-26T10:44:44;7.27;;;5.77;;
11671;SDS011;5892;43.412;24.612;2023-06-26T10:47:12;11.80;;;6.53;;
11671;SDS011;5892;43.412;24.612;2023-06-26T10:49:55;7.20;;;6.40;;
11671;SDS011;5892;43.412;24.612;2023-06-26T10:52:22;12.67;;;6.30;;
11671;SDS011;5892;43.412;24.612;2023-06-26T10:54:54;9.53;;;6.17;;
11671;SDS011;5892;43.412;24.612;2023-06-26T10:57:25;9.20;;;6.37;;
11671;SDS011;5892;43.412;24.612;2023-06-26T11:02:47;9.43;;;7.60;;
11671;SDS011;5892;43.412;24.612;2023-06-26T11:05:23;9.17;;;8.27;;
11671;SDS011;5892;43.412;24.612;2023-06-26T11:08:02;12.07;;;9.07;;
11671;SDS011;5892;43.412;24.612;2023-06-26T11:10:29;13.47;;;9.63;;
11671;SDS011;5892;43.412;24.612;2023-06-26T11:13:15;11.43;;;9.87;;
11671;SDS011;5892;43.412;24.612;2023-06-26T11:15:45;13.00;;;10.47;;
11671;SDS011;5892;43.412;24.612;2023-06-26T11:18:12;13.00;;;10.13;;
11671;SDS011;5892;43.412;24.612;2023-06-26T11:20:39;11.30;;;10.10;;
11671;SDS011;5892;43.412;24.612;2023-06-26T11:23:07;11.50;;;10.40;;
11671;SDS011;5892;43.412;24.612;2023-06-26T11:25:35;12.83;;;10.57;;
11671;SDS011;5892;43.412;24.612;2023-06-26T11:28:03;14.67;;;10.83;;
11671;SDS011;5892;43.412;24.612;2023-06-26T11:30:32;11.30;;;10.07;;
11671;SDS011;5892;43.412;24.612;2023-06-26T11:33:02;13.20;;;11.80;;
11671;SDS011;5892;43.412;24.612;2023-06-26T11:35:30;13.43;;;11.80;;
11671;SDS011;5892;43.412;24.612;2023-06-26T11:37:58;16.07;;;11.53;;
11671;SDS011;5892;43.412;24.612;2023-06-26T11:40:30;12.47;;;11.13;;
11671;SDS011;5892;43.412;24.612;2023-06-26T11:42:58;12.23;;;10.43;;
11671;SDS011;5892;43.412;24.612;2023-06-26T11:45:25;14.67;;;10.23;;
11671;SDS011;5892;43.412;24.612;2023-06-26T11:47:56;10.30;;;9.30;;
11671;SDS011;5892;43.412;24.612;2023-06-26T11:50:23;10.57;;;9.00;;
11671;SDS011;5892;43.412;24.612;2023-06-26T11:52:54;8.87;;;7.53;;
11671;SDS011;5892;43.412;24.612;2023-06-26T11:55:22;10.00;;;6.57;;
11671;SDS011;5892;43.412;24.612;2023-06-26T11:57:49;7.67;;;5.80;;
11671;SDS011;5892;43.412;24.612;2023-06-26T12:00:17;6.73;;;5.90;;
11671;SDS011;5892;43.412;24.612;2023-06-26T12:02:44;6.00;;;5.40;;
11671;SDS011;5892;43.412;24.612;2023-06-26T12:05:13;7.80;;;5.53;;
11671;SDS011;5892;43.412;24.612;2023-06-26T12:07:41;12.17;;;5.67;;
11671;SDS011;5892;43.412;24.612;2023-06-26T12:10:11;8.20;;;5.07;;
11671;SDS011;5892;43.412;24.612;2023-06-26T12:12:39;8.77;;;5.77;;
11671;SDS011;5892;43.412;24.612;2023-06-26T12:15:07;9.33;;;5.17;;
11671;SDS011;5892;43.412;24.612;2023-06-26T12:17:37;6.80;;;4.60;;
11671;SDS011;5892;43.412;24.612;2023-06-26T12:20:05;5.13;;;4.63;;
11671;SDS011;5892;43.412;24.612;2023-06-26T12:22:45;8.23;;;4.80;;
11671;SDS011;5892;43.412;24.612;2023-06-26T12:25:12;5.47;;;4.20;;
11671;SDS011;5892;43.412;24.612;2023-06-26T12:27:39;6.87;;;4.17;;
11671;SDS011;5892;43.412;24.612;2023-06-26T12:30:06;4.27;;;3.87;;
11671;SDS011;5892;43.412;24.612;2023-06-26T12:32:34;4.70;;;4.17;;
11671;SDS011;5892;43.412;24.612;2023-06-26T12:35:01;6.47;;;4.27;;
11671;SDS011;5892;43.412;24.612;2023-06-26T12:37:36;6.53;;;4.77;;
11671;SDS011;5892;43.412;24.612;2023-06-26T12:40:10;5.43;;;4.60;;
11671;SDS011;5892;43.412;24.612;2023-06-26T12:42:47;6.90;;;4.27;;
11671;SDS011;5892;43.412;24.612;2023-06-26T12:45:14;5.27;;;4.13;;
11671;SDS011;5892;43.412;24.612;2023-06-26T12:47:42;8.17;;;4.23;;
11671;SDS011;5892;43.412;24.612;2023-06-26T12:50:09;7.40;;;4.10;;
11671;SDS011;5892;43.412;24.612;2023-06-26T12:52:36;4.90;;;4.37;;
11671;SDS011;5892;43.412;24.612;2023-06-26T12:55:03;6.43;;;4.90;;
11671;SDS011;5892;43.412;24.612;2023-06-26T12:57:34;5.70;;;4.93;;
11671;SDS011;5892;43.412;24.612;2023-06-26T13:00:01;6.10;;;5.37;;
11671;SDS011;5892;43.412;24.612;2023-06-26T13:02:29;6.93;;;5.33;;
11671;SDS011;5892;43.412;24.612;2023-06-26T13:04:56;6.87;;;4.90;;
11671;SDS011;5892;43.412;24.612;2023-06-26T13:07:23;7.37;;;4.40;;
11671;SDS011;5892;43.412;24.612;2023-06-26T13:09:50;7.03;;;4.57;;
11671;SDS011;5892;43.412;24.612;2023-06-26T13:12:18;8.27;;;4.30;;
11671;SDS011;5892;43.412;24.612;2023-06-26T13:14:45;5.93;;;4.30;;
11671;SDS011;5892;43.412;24.612;2023-06-26T13:17:13;7.40;;;4.60;;
11671;SDS011;5892;43.412;24.612;2023-06-26T13:19:40;6.73;;;4.33;;
11671;SDS011;5892;43.412;24.612;2023-06-26T13:22:09;8.13;;;4.70;;
11671;SDS011;5892;43.412;24.612;2023-06-26T13:24:36;6.83;;;4.60;;
11671;SDS011;5892;43.412;24.612;2023-06-26T13:27:03;8.10;;;4.67;;
11671;SDS011;5892;43.412;24.612;2023-06-26T13:29:32;5.50;;;4.83;;
11671;SDS011;5892;43.412;24.612;2023-06-26T13:31:59;5.97;;;4.40;;
11671;SDS011;5892;43.412;24.612;2023-06-26T13:34:27;5.50;;;4.90;;
11671;SDS011;5892;43.412;24.612;2023-06-26T13:36:57;7.87;;;5.10;;
11671;SDS011;5892;43.412;24.612;2023-06-26T13:39:25;7.43;;;5.00;;
11671;SDS011;5892;43.412;24.612;2023-06-26T13:41:52;7.07;;;5.37;;
11671;SDS011;5892;43.412;24.612;2023-06-26T13:44:20;7.63;;;5.37;;
11671;SDS011;5892;43.412;24.612;2023-06-26T13:46:48;6.43;;;5.33;;
11671;SDS011;5892;43.412;24.612;2023-06-26T13:49:15;6.13;;;5.40;;
11671;SDS011;5892;43.412;24.612;2023-06-26T13:51:42;8.67;;;5.67;;
11671;SDS011;5892;43.412;24.612;2023-06-26T13:54:12;6.20;;;5.23;;
11671;SDS011;5892;43.412;24.612;2023-06-26T13:56:39;8.63;;;5.40;;
11671;SDS011;5892;43.412;24.612;2023-06-26T13:59:06;6.70;;;5.20;;
11671;SDS011;5892;43.412;24.612;2023-06-26T14:01:36;7.27;;;5.50;;
11671;SDS011;5892;43.412;24.612;2023-06-26T14:04:05;6.97;;;5.47;;
11671;SDS011;5892;43.412;24.612;2023-06-26T14:06:32;7.63;;;5.30;;
11671;SDS011;5892;43.412;24.612;2023-06-26T14:08:59;9.97;;;6.03;;
11671;SDS011;5892;43.412;24.612;2023-06-26T14:11:26;8.33;;;5.70;;
11671;SDS011;5892;43.412;24.612;2023-06-26T14:13:53;6.87;;;4.97;;
11671;SDS011;5892;43.412;24.612;2023-06-26T14:16:20;6.47;;;5.10;;
11671;SDS011;5892;43.412;24.612;2023-06-26T14:18:47;7.47;;;5.30;;
11671;SDS011;5892;43.412;24.612;2023-06-26T14:21:19;6.37;;;4.83;;
11671;SDS011;5892;43.412;24.612;2023-06-26T14:23:47;4.73;;;4.27;;
11671;SDS011;5892;43.412;24.612;2023-06-26T14:26:14;6.47;;;4.67;;
11671;SDS011;5892;43.412;24.612;2023-06-26T14:28:40;5.83;;;4.37;;
11671;SDS011;5892;43.412;24.612;2023-06-26T14:31:07;6.33;;;4.47;;
11671;SDS011;5892;43.412;24.612;2023-06-26T14:33:34;6.07;;;4.20;;
11671;SDS011;5892;43.412;24.612;2023-06-26T14:36:01;6.53;;;4.20;;
11671;SDS011;5892;43.412;24.612;2023-06-26T14:38:30;5.50;;;4.10;;
11671;SDS011;5892;43.412;24.612;2023-06-26T14:40:57;3.87;;;3.43;;
11671;SDS011;5892;43.412;24.612;2023-06-26T14:43:24;5.67;;;3.87;;
11671;SDS011;5892;43.412;24.612;2023-06-26T14:45:51;5.30;;;3.93;;
11671;SDS011;5892;43.412;24.612;2023-06-26T14:48:18;5.23;;;3.60;;